Time;durP1;ratioP1;P1;durP2;ratioP2;P2;SDS_P1;SDS_P2;PMS_P1;PMS_P2;Temp;Humidity;BMP_temperature;BMP_pressure;BME280_temperature;BME280_humidity;BME280_pressure;Samples;Min_cycle;Max_cycle;Signal;HPM_P1;HPM_P2
2022/12/22 03:26:59;;;;;;;10.90;6.90;;;9.30;99.90;;;;;;5050218;28;20036;-50
2022/12/22 03:29:25;;;;;;;10.53;6.47;;;9.20;99.90;;;;;;5049978;28;20025;-51
2022/12/22 03:31:51;;;;;;;12.27;6.33;;;9.20;99.90;;;;;;5050530;28;20438;-48
2022/12/22 03:34:16;;;;;;;10.20;5.67;;;9.30;99.90;;;;;;5050372;28;20112;-49
2022/12/22 03:36:42;;;;;;;9.50;6.53;;;9.30;99.90;;;;;;5050246;28;20029;-52
2022/12/22 03:39:08;;;;;;;9.50;6.00;;;9.30;99.90;;;;;;5049998;28;20401;-49
2022/12/22 03:47:03;;;;;;;9.27;5.53;;;9.30;99.90;;;;;;5050241;28;20121;-52
2022/12/22 03:49:29;;;;;;;8.53;4.67;;;9.20;99.90;;;;;;5049936;28;20111;-53
2022/12/22 03:51:55;;;;;;;7.67;4.93;;;9.20;99.90;;;;;;5050277;28;20029;-49
2022/12/22 03:54:23;;;;;;;7.47;3.80;;;9.30;99.90;;;;;;5050207;28;20116;-48
2022/12/22 03:56:50;;;;;;;5.40;3.50;;;9.30;99.90;;;;;;5050874;28;20108;-50
2022/12/22 03:59:16;;;;;;;5.03;3.07;;;9.40;99.90;;;;;;5053856;28;20103;-52
2022/12/22 04:01:44;;;;;;;6.43;3.40;;;9.40;99.90;;;;;;5054156;28;20371;-48
2022/12/22 04:04:11;;;;;;;4.57;2.70;;;9.40;99.90;;;;;;5054126;28;20028;-49
2022/12/22 04:06:37;;;;;;;5.23;3.13;;;9.40;99.90;;;;;;5053828;28;20033;-52
2022/12/22 04:09:03;;;;;;;5.20;2.80;;;9.40;99.90;;;;;;5053674;28;20032;-51
2022/12/22 04:14:14;;;;;;;4.57;2.67;;;9.50;99.90;;;;;;5054036;28;20548;-52
2022/12/22 04:16:39;;;;;;;4.57;2.50;;;9.50;99.90;;;;;;5053797;28;20093;-53
2022/12/22 04:19:06;;;;;;;4.53;2.47;;;9.50;99.90;;;;;;5053532;28;20033;-52
2022/12/22 04:21:32;;;;;;;5.63;2.70;;;9.50;99.90;;;;;;5053559;28;20029;-53
2022/12/22 04:23:58;;;;;;;6.47;2.87;;;9.50;99.90;;;;;;5053741;28;20032;-53
2022/12/22 04:26:24;;;;;;;4.30;2.50;;;9.50;99.90;;;;;;5053571;28;20381;-53
2022/12/22 04:28:52;;;;;;;7.17;2.60;;;9.50;99.90;;;;;;5053378;28;20049;-51
2022/12/22 04:31:18;;;;;;;4.67;2.40;;;9.60;99.90;;;;;;5053531;28;20043;-52
2022/12/22 04:33:45;;;;;;;4.00;2.60;;;9.50;99.90;;;;;;5053601;28;20033;-52
2022/12/22 04:36:11;;;;;;;6.03;2.43;;;9.50;99.90;;;;;;5053456;28;20032;-52
2022/12/22 04:38:37;;;;;;;6.73;3.07;;;9.50;99.90;;;;;;5052829;28;20167;-49
2022/12/22 04:41:03;;;;;;;6.70;2.60;;;9.50;99.90;;;;;;5053560;28;20087;-50
2022/12/22 04:43:29;;;;;;;4.27;2.60;;;9.40;99.90;;;;;;5053311;28;20033;-52
2022/12/22 04:45:55;;;;;;;7.63;3.10;;;9.50;99.90;;;;;;5053332;28;20036;-52
2022/12/22 04:48:26;;;;;;;5.20;3.00;;;9.50;99.90;;;;;;5052988;28;20040;-50
2022/12/22 04:50:54;;;;;;;6.37;3.00;;;9.50;99.90;;;;;;5052936;28;20032;-50
2022/12/22 04:53:21;;;;;;;9.17;3.37;;;9.40;99.90;;;;;;5053104;28;20037;-53
2022/12/22 04:55:53;;;;;;;5.50;3.40;;;9.50;99.90;;;;;;5053196;28;20393;-52
2022/12/22 04:58:19;;;;;;;6.23;3.40;;;9.40;99.90;;;;;;5052806;28;20043;-52
2022/12/22 05:00:45;;;;;;;6.47;3.53;;;9.40;99.90;;;;;;5052764;28;20103;-53
2022/12/22 05:03:11;;;;;;;5.83;3.77;;;9.50;99.90;;;;;;5052885;28;20111;-51
2022/12/22 05:05:37;;;;;;;6.80;3.30;;;9.50;99.90;;;;;;5052885;28;20029;-54
2022/12/22 05:08:03;;;;;;;6.93;3.80;;;9.50;99.90;;;;;;5052229;28;20029;-53
2022/12/22 05:10:29;;;;;;;6.43;3.93;;;9.50;99.90;;;;;;5052296;28;20355;-51
2022/12/22 05:12:55;;;;;;;9.27;4.57;;;9.40;99.90;;;;;;5052711;28;20045;-52
2022/12/22 05:15:26;;;;;;;16.47;9.50;;;9.40;99.90;;;;;;5052873;28;20201;-51
2022/12/22 05:17:52;;;;;;;13.50;7.27;;;9.40;99.90;;;;;;5052367;28;20025;-51
2022/12/22 05:20:18;;;;;;;15.57;9.80;;;9.40;99.90;;;;;;5052492;28;20113;-49
2022/12/22 05:22:44;;;;;;;7.47;4.60;;;9.40;99.90;;;;;;5052638;28;20055;-50
2022/12/22 05:25:10;;;;;;;8.37;4.40;;;9.50;99.90;;;;;;5052575;28;20035;-49
2022/12/22 05:27:36;;;;;;;8.63;5.20;;;9.60;99.90;;;;;;5052150;28;20052;-53
2022/12/22 05:30:02;;;;;;;8.20;4.93;;;9.50;99.90;;;;;;5052089;28;20048;-51
2022/12/22 05:32:28;;;;;;;9.13;5.70;;;9.50;99.90;;;;;;5052293;28;20029;-51
2022/12/22 05:34:54;;;;;;;8.90;5.67;;;9.40;99.90;;;;;;5052608;28;20025;-52
2022/12/22 05:37:19;;;;;;;9.93;5.80;;;9.30;99.90;;;;;;5052519;28;20536;-52
2022/12/22 05:39:45;;;;;;;7.33;4.97;;;9.40;99.90;;;;;;5051769;28;20033;-50
2022/12/22 05:42:11;;;;;;;8.43;4.93;;;9.40;99.90;;;;;;5052205;28;20025;-52
2022/12/22 05:44:36;;;;;;;9.23;5.77;;;9.60;99.90;;;;;;5052221;28;20401;-51
2022/12/22 05:47:02;;;;;;;10.37;6.13;;;9.60;99.90;;;;;;5051984;28;20025;-51
2022/12/22 05:49:28;;;;;;;10.30;6.17;;;9.60;99.90;;;;;;5051808;28;20036;-51
2022/12/22 05:51:54;;;;;;;14.20;7.13;;;9.60;99.90;;;;;;5052070;28;20033;-52
2022/12/22 05:54:20;;;;;;;11.27;6.70;;;9.50;99.90;;;;;;5052143;28;20374;-52
2022/12/22 05:56:46;;;;;;;9.50;5.57;;;9.50;99.90;;;;;;5051755;28;20036;-51
2022/12/22 05:59:11;;;;;;;15.93;7.03;;;9.50;99.90;;;;;;5051454;28;20076;-53
2022/12/22 06:01:37;;;;;;;11.90;7.30;;;9.50;99.90;;;;;;5051719;28;20044;-52
2022/12/22 06:04:03;;;;;;;11.23;6.77;;;9.60;99.90;;;;;;5052144;28;20029;-53
2022/12/22 06:06:29;;;;;;;14.73;7.80;;;9.50;99.90;;;;;;5051669;28;20499;-51
2022/12/22 06:08:55;;;;;;;13.13;9.20;;;9.50;99.90;;;;;;5051263;28;20112;-52
2022/12/22 06:11:20;;;;;;;16.33;9.10;;;9.50;99.90;;;;;;5051724;28;20025;-52
2022/12/22 06:13:46;;;;;;;16.73;9.20;;;9.50;99.90;;;;;;5051988;28;20354;-51
2022/12/22 06:16:12;;;;;;;17.57;9.87;;;9.50;99.90;;;;;;5051585;28;20054;-53
2022/12/22 06:18:37;;;;;;;17.23;10.10;;;9.50;99.90;;;;;;5051298;28;20432;-53
2022/12/22 06:21:03;;;;;;;17.73;10.90;;;9.50;99.90;;;;;;5050430;28;20029;-53
2022/12/22 06:23:29;;;;;;;17.80;10.63;;;9.50;99.90;;;;;;5051493;28;20040;-52
2022/12/22 06:25:56;;;;;;;18.27;11.13;;;9.50;99.90;;;;;;5051479;28;20175;-50
2022/12/22 06:28:22;;;;;;;17.87;12.00;;;9.50;99.90;;;;;;5051103;28;20406;-51
2022/12/22 06:30:48;;;;;;;19.13;12.33;;;9.50;99.90;;;;;;5050910;28;20401;-51
2022/12/22 06:33:14;;;;;;;20.10;13.57;;;9.50;99.90;;;;;;5051428;28;20034;-52
2022/12/22 06:35:40;;;;;;;24.67;14.17;;;9.50;99.90;;;;;;5051269;28;20136;-50
2022/12/22 06:38:06;;;;;;;21.60;13.33;;;9.50;99.90;;;;;;5051120;28;20107;-53
2022/12/22 06:40:31;;;;;;;22.50;14.27;;;9.50;99.90;;;;;;5050713;28;20338;-51
2022/12/22 06:43:09;;;;;;;25.43;14.93;;;9.50;99.90;;;;;;5051065;28;20025;-51
2022/12/22 06:45:36;;;;;;;22.70;13.40;;;9.50;99.90;;;;;;5051348;28;20028;-52
2022/12/22 06:48:02;;;;;;;22.30;13.17;;;9.50;99.90;;;;;;5051138;28;20029;-52
2022/12/22 06:50:28;;;;;;;26.73;15.50;;;9.50;99.90;;;;;;5050671;28;20401;-53
2022/12/22 06:52:54;;;;;;;27.40;16.50;;;9.50;99.90;;;;;;5050877;28;20120;-51
2022/12/22 06:55:19;;;;;;;25.13;15.33;;;9.50;99.90;;;;;;5050854;28;20122;-49
2022/12/22 06:57:45;;;;;;;28.87;16.27;;;9.40;99.90;;;;;;5050414;28;20453;-53
2022/12/22 07:00:11;;;;;;;27.53;16.90;;;9.40;99.90;;;;;;5050575;28;20035;-55
2022/12/22 07:02:37;;;;;;;29.20;17.30;;;9.40;99.90;;;;;;5050778;28;20109;-52
2022/12/22 07:05:03;;;;;;;28.00;17.63;;;9.40;99.90;;;;;;5050658;28;20454;-53
2022/12/22 07:07:29;;;;;;;27.40;16.83;;;9.40;99.90;;;;;;5050496;28;20040;-53
2022/12/22 07:09:55;;;;;;;28.23;17.20;;;9.50;99.90;;;;;;5050286;28;20028;-54
2022/12/22 07:12:22;;;;;;;33.90;21.43;;;9.40;99.90;;;;;;5049255;28;20486;-51
2022/12/22 07:14:48;;;;;;;28.03;18.60;;;9.40;99.90;;;;;;5050749;28;20037;-53
2022/12/22 07:17:13;;;;;;;30.53;19.83;;;9.40;99.90;;;;;;5050313;28;20116;-53
2022/12/22 07:19:39;;;;;;;34.73;20.40;;;9.40;99.90;;;;;;5050155;28;20059;-54
2022/12/22 07:22:05;;;;;;;39.37;21.73;;;9.40;99.90;;;;;;5050513;28;20037;-50
2022/12/22 07:24:31;;;;;;;40.50;21.93;;;9.40;99.90;;;;;;5050501;28;20082;-50
2022/12/22 07:26:56;;;;;;;38.87;22.37;;;9.40;99.90;;;;;;5050143;28;20025;-49
2022/12/22 07:29:22;;;;;;;40.73;23.37;;;9.30;99.90;;;;;;5050426;28;20036;-48
2022/12/22 07:31:48;;;;;;;38.60;22.57;;;9.30;99.90;;;;;;5049937;28;20435;-51
2022/12/22 07:34:14;;;;;;;42.67;22.60;;;9.30;99.90;;;;;;5050389;28;20037;-51
2022/12/22 07:36:39;;;;;;;43.47;22.43;;;9.20;99.90;;;;;;5050140;28;20409;-50
2022/12/22 07:39:05;;;;;;;41.57;22.40;;;9.30;99.90;;;;;;5050030;28;20060;-49
2022/12/22 07:44:16;;;;;;;45.37;21.83;;;9.20;99.90;;;;;;5050585;28;20409;-52
2022/12/22 07:46:41;;;;;;;43.90;20.90;;;9.20;99.90;;;;;;5050127;28;20036;-54
2022/12/22 07:51:51;;;;;;;43.20;19.67;;;9.20;99.90;;;;;;5050130;28;20449;-53
2022/12/22 07:54:17;;;;;;;44.63;18.90;;;9.20;99.90;;;;;;5050202;28;20029;-53
2022/12/22 07:56:45;;;;;;;47.60;19.93;;;9.20;99.90;;;;;;5049940;28;20025;-53
2022/12/22 07:59:11;;;;;;;52.50;20.10;;;9.20;99.90;;;;;;5049765;28;20032;-53
2022/12/22 08:01:40;;;;;;;52.87;21.47;;;9.20;99.90;;;;;;5050151;28;20021;-51
2022/12/22 08:04:06;;;;;;;60.90;21.63;;;9.20;99.90;;;;;;5050084;28;20040;-51
2022/12/22 08:06:33;;;;;;;58.10;21.20;;;9.20;99.90;;;;;;5049765;28;20028;-52
2022/12/22 08:08:59;;;;;;;64.33;22.07;;;9.20;99.90;;;;;;5049853;28;20378;-52
2022/12/22 08:11:25;;;;;;;62.00;22.70;;;9.20;99.90;;;;;;5050072;28;20036;-53
2022/12/22 08:13:51;;;;;;;63.30;21.83;;;9.20;99.90;;;;;;5050025;28;20029;-53
2022/12/22 08:16:18;;;;;;;61.83;21.20;;;9.20;99.90;;;;;;5049890;28;20440;-52
2022/12/22 08:18:44;;;;;;;59.93;21.53;;;9.20;99.90;;;;;;5049545;28;20108;-52
2022/12/22 08:21:09;;;;;;;61.20;21.10;;;9.20;99.90;;;;;;5049874;28;20142;-53
2022/12/22 08:23:35;;;;;;;60.90;21.27;;;9.20;99.90;;;;;;5050008;28;20041;-52
2022/12/22 08:26:07;;;;;;;62.60;21.83;;;9.20;99.90;;;;;;5050099;28;20029;-53
2022/12/22 08:28:37;;;;;;;65.50;23.13;;;9.30;99.90;;;;;;5049484;28;20037;-52
2022/12/22 08:31:03;;;;;;;71.83;22.47;;;9.20;99.90;;;;;;5049914;28;20037;-54
2022/12/22 08:33:29;;;;;;;69.83;23.17;;;9.20;99.90;;;;;;5049806;28;20031;-53
2022/12/22 08:35:56;;;;;;;73.43;23.53;;;9.20;99.90;;;;;;5049831;28;20029;-53
2022/12/22 08:38:22;;;;;;;74.27;23.03;;;9.20;99.90;;;;;;5049680;28;20048;-51
2022/12/22 08:40:48;;;;;;;76.33;22.90;;;9.20;99.90;;;;;;5062394;22;20124;-53
2022/12/22 08:43:15;;;;;;;81.13;23.63;;;9.20;99.90;;;;;;5049813;28;20474;-52
2022/12/22 08:45:41;;;;;;;75.43;22.53;;;9.20;99.90;;;;;;5053284;28;20040;-52
2022/12/22 08:48:08;;;;;;;74.47;25.10;;;9.30;99.90;;;;;;5052906;28;20033;-55
2022/12/22 08:50:34;;;;;;;77.73;24.27;;;9.30;99.90;;;;;;5053186;28;20029;-55
2022/12/22 08:53:07;;;;;;;67.50;22.87;;;9.30;99.90;;;;;;5053082;28;20640;-53
2022/12/22 08:55:33;;;;;;;63.63;22.03;;;9.30;99.90;;;;;;5053228;28;20393;-55
2022/12/22 08:57:59;;;;;;;65.27;22.00;;;9.30;99.90;;;;;;5052792;28;20048;-53
2022/12/22 09:00:25;;;;;;;74.33;25.83;;;9.30;99.90;;;;;;5052662;28;20045;-54
2022/12/22 09:02:51;;;;;;;72.10;23.27;;;9.30;99.90;;;;;;5053102;28;20082;-52
2022/12/22 09:05:18;;;;;;;69.37;24.47;;;9.40;99.90;;;;;;5053151;28;20025;-53
2022/12/22 09:07:46;;;;;;;67.47;24.70;;;9.30;99.90;;;;;;5052819;28;20032;-56
2022/12/22 09:10:12;;;;;;;63.40;22.90;;;9.40;99.90;;;;;;5052649;28;20037;-50
2022/12/22 09:12:37;;;;;;;66.60;23.13;;;9.50;99.90;;;;;;5052941;28;20036;-51
2022/12/22 09:15:04;;;;;;;59.40;21.30;;;9.50;99.90;;;;;;5052607;28;20033;-54
2022/12/22 09:17:30;;;;;;;59.10;21.07;;;9.60;99.90;;;;;;5052610;28;20277;-52
2022/12/22 09:19:56;;;;;;;53.57;19.13;;;9.60;99.90;;;;;;5052340;28;20078;-52
2022/12/22 09:22:21;;;;;;;50.13;18.77;;;9.60;99.90;;;;;;5052713;28;20474;-53
2022/12/22 09:24:47;;;;;;;47.07;17.90;;;9.70;99.90;;;;;;5052655;28;20031;-54
2022/12/22 09:27:13;;;;;;;44.27;17.00;;;9.60;99.90;;;;;;5052855;28;20040;-51
2022/12/22 09:29:39;;;;;;;46.30;17.57;;;9.60;99.90;;;;;;5052213;28;20033;-54
2022/12/22 09:32:05;;;;;;;43.77;16.40;;;9.50;99.90;;;;;;5052593;28;20068;-53
2022/12/22 09:34:31;;;;;;;42.70;17.27;;;9.60;99.90;;;;;;5052410;28;20061;-53
2022/12/22 09:36:57;;;;;;;41.60;16.83;;;9.50;99.90;;;;;;5051985;28;20064;-53
2022/12/22 09:39:23;;;;;;;34.37;15.97;;;9.50;99.90;;;;;;5051904;28;20040;-53
2022/12/22 09:41:52;;;;;;;33.63;15.77;;;9.50;99.90;;;;;;5052164;28;20040;-53
2022/12/22 09:44:49;;;;;;;32.23;15.73;;;9.50;99.90;;;;;;5052182;28;20479;-55
2022/12/22 09:47:41;;;;;;;36.33;16.50;;;9.50;99.90;;;;;;5043626;28;20153;-55
2022/12/22 09:50:15;;;;;;;33.63;15.63;;;9.40;99.90;;;;;;5049735;28;20037;-55
2022/12/22 09:52:46;;;;;;;41.03;16.27;;;9.40;99.90;;;;;;5052092;28;20036;-56
2022/12/22 09:55:34;;;;;;;39.47;17.43;;;9.40;99.90;;;;;;5051853;28;20021;-54
2022/12/22 09:58:00;;;;;;;43.50;18.60;;;9.30;99.90;;;;;;5044271;28;20048;-52
2022/12/22 10:00:27;;;;;;;45.67;18.30;;;9.30;99.90;;;;;;5051689;28;20389;-55
2022/12/22 10:03:05;;;;;;;47.40;19.30;;;9.30;99.90;;;;;;5051817;28;20064;-56
2022/12/22 10:05:40;;;;;;;46.60;19.10;;;9.30;99.90;;;;;;5051919;28;20064;-54
2022/12/22 10:08:33;;;;;;;45.97;18.80;;;9.40;99.90;;;;;;5051677;28;20029;-54
2022/12/22 10:10:59;;;;;;;49.07;19.13;;;9.40;99.90;;;;;;5047316;28;20041;-52
2022/12/22 10:13:25;;;;;;;46.50;19.83;;;9.40;99.90;;;;;;5051671;28;20409;-54
2022/12/22 10:15:52;;;;;;;45.63;19.07;;;9.30;99.90;;;;;;5051700;28;20037;-54
2022/12/22 10:18:23;;;;;;;48.77;19.10;;;9.30;99.90;;;;;;5051116;28;20060;-53
2022/12/22 10:21:04;;;;;;;48.40;19.93;;;9.30;99.90;;;;;;5050088;28;20051;-55
2022/12/22 10:23:34;;;;;;;47.40;19.80;;;9.30;99.90;;;;;;5050778;28;20566;-56
2022/12/22 10:26:17;;;;;;;48.27;20.53;;;9.30;99.90;;;;;;5051052;28;20033;-60
2022/12/22 10:28:51;;;;;;;51.47;20.43;;;9.30;99.90;;;;;;5051586;28;20044;-58
2022/12/22 10:31:16;;;;;;;43.23;19.40;;;9.30;99.90;;;;;;5051373;28;20040;-57
2022/12/22 10:33:44;;;;;;;49.47;20.33;;;9.20;99.90;;;;;;5051727;28;20119;-55
2022/12/22 10:36:11;;;;;;;46.50;20.30;;;9.30;99.90;;;;;;5051250;28;20082;-55
2022/12/22 10:38:51;;;;;;;51.40;19.37;;;9.40;99.90;;;;;;5050672;28;20444;-56
2022/12/22 10:41:22;;;;;;;44.80;19.47;;;9.50;99.90;;;;;;5051239;28;20029;-57
2022/12/22 10:43:52;;;;;;;38.67;18.07;;;9.80;99.90;;;;;;5051094;28;20021;-57
2022/12/22 10:46:27;;;;;;;31.40;15.80;;;10.60;99.90;;;;;;5050913;28;20072;-57
2022/12/22 10:49:06;;;;;;;22.23;14.18;;;11.50;99.90;;;;;;5050731;28;20033;-57
2022/12/22 10:51:31;;;;;;;21.33;12.65;;;12.70;99.90;;;;;;5051027;28;20037;-60
2022/12/22 10:53:57;;;;;;;21.55;12.18;;;14.10;99.90;;;;;;5051084;28;20025;-58
2022/12/22 10:56:27;;;;;;;18.63;11.57;;;15.20;99.90;;;;;;5050677;28;20507;-58
2022/12/22 10:59:18;;;;;;;18.13;12.13;;;16.10;99.90;;;;;;5050621;28;20028;-58
2022/12/22 11:01:44;;;;;;;22.65;12.48;;;16.90;99.90;;;;;;5050764;28;20033;-58
2022/12/22 11:04:23;;;;;;;19.48;12.52;;;16.80;99.90;;;;;;5049449;28;20082;-58
2022/12/22 11:06:51;;;;;;;21.77;13.10;;;15.70;99.90;;;;;;5049082;28;20029;-57
2022/12/22 11:09:18;;;;;;;22.52;13.73;;;15.00;99.90;;;;;;5050242;28;20496;-57
2022/12/22 11:11:52;;;;;;;25.10;14.73;;;14.20;99.90;;;;;;5050049;28;20079;-58
2022/12/22 11:14:18;;;;;;;27.70;15.88;;;13.60;99.90;;;;;;5050424;28;20025;-57
2022/12/22 11:16:51;;;;;;;25.58;15.35;;;13.10;99.90;;;;;;5049827;28;20032;-56
2022/12/22 11:19:35;;;;;;;27.52;15.40;;;12.70;99.90;;;;;;5050093;28;20643;-57
2022/12/22 11:22:14;;;;;;;30.48;15.63;;;12.60;99.90;;;;;;5048869;28;20033;-58
2022/12/22 11:25:06;;;;;;;24.30;14.50;;;12.80;99.90;;;;;;5050372;28;20060;-59
2022/12/22 11:27:56;;;;;;;26.58;14.23;;;12.90;99.90;;;;;;5049735;28;20389;-58
2022/12/22 11:30:49;;;;;;;25.02;15.07;;;13.00;99.90;;;;;;5049745;28;20108;-58
2022/12/22 11:33:38;;;;;;;24.67;14.05;;;12.80;99.90;;;;;;5050098;28;20033;-58
2022/12/22 11:36:12;;;;;;;26.55;15.23;;;12.50;99.90;;;;;;5050024;28;20033;-58
2022/12/22 11:38:52;;;;;;;29.40;15.52;;;12.00;99.90;;;;;;5049488;28;20040;-58
2022/12/22 11:41:51;;;;;;;26.92;14.93;;;11.70;99.90;;;;;;5049933;28;20048;-58
2022/12/22 11:44:41;;;;;;;28.25;15.90;;;11.60;99.90;;;;;;5050180;28;20024;-57
2022/12/22 11:47:45;;;;;;;26.90;15.05;;;11.90;99.90;;;;;;5049389;28;20044;-56
2022/12/22 11:50:38;;;;;;;21.38;12.00;;;12.60;99.90;;;;;;5049736;28;20045;-56
2022/12/22 11:53:35;;;;;;;21.98;11.80;;;13.40;99.90;;;;;;5057895;28;20123;-57
2022/12/22 11:56:10;;;;;;;18.63;10.57;;;14.10;99.90;;;;;;5069418;28;20127;-57
2022/12/22 11:58:45;;;;;;;17.48;10.60;;;14.30;99.90;;;;;;5068948;28;20115;-56
2022/12/22 12:01:31;;;;;;;15.82;9.40;;;14.10;99.90;;;;;;5069007;28;20052;-57
2022/12/22 12:04:09;;;;;;;16.20;9.88;;;13.60;99.90;;;;;;5069134;28;20039;-57
2022/12/22 12:07:16;;;;;;;20.55;11.82;;;13.10;99.90;;;;;;5069539;28;20036;-57
2022/12/22 12:09:51;;;;;;;19.20;11.05;;;12.70;99.90;;;;;;5069551;28;20044;-56
2022/12/22 12:12:26;;;;;;;20.67;10.52;;;12.40;99.90;;;;;;5069633;28;20029;-55
2022/12/22 12:14:57;;;;;;;19.88;10.80;;;12.30;99.90;;;;;;5068935;28;20036;-56
2022/12/22 12:17:45;;;;;;;20.08;11.07;;;12.10;99.90;;;;;;5069383;28;20053;-56
2022/12/22 12:20:43;;;;;;;20.65;10.55;;;11.60;99.90;;;;;;5072744;28;20093;-57
2022/12/22 12:23:11;;;;;;;22.38;11.27;;;11.50;99.90;;;;;;5031446;28;20052;-55
2022/12/22 12:25:48;;;;;;;22.25;12.27;;;11.40;99.90;;;;;;5073337;28;20021;-54
2022/12/22 12:28:17;;;;;;;23.65;10.98;;;11.30;99.90;;;;;;5072327;28;20032;-56
2022/12/22 12:30:51;;;;;;;23.13;11.73;;;11.40;99.90;;;;;;5073354;28;20032;-57
2022/12/22 12:33:37;;;;;;;19.27;11.10;;;11.50;99.90;;;;;;5073147;28;20520;-54
2022/12/22 12:36:16;;;;;;;21.55;11.75;;;11.90;99.90;;;;;;5072814;28;20143;-54
2022/12/22 12:39:01;;;;;;;19.98;11.73;;;12.00;99.90;;;;;;5072626;28;20025;-55
2022/12/22 12:41:50;;;;;;;20.50;11.07;;;12.40;99.90;;;;;;5072866;28;20063;-54
2022/12/22 12:44:20;;;;;;;20.60;11.95;;;13.20;99.90;;;;;;5073183;28;20032;-54
2022/12/22 12:46:49;;;;;;;19.83;11.25;;;13.50;99.90;;;;;;5072801;28;20138;-55
2022/12/22 12:49:33;;;;;;;21.80;12.38;;;13.60;99.90;;;;;;5072807;28;20037;-55
2022/12/22 12:52:10;;;;;;;23.80;12.95;;;13.30;99.90;;;;;;5072850;28;20539;-55
2022/12/22 12:54:46;;;;;;;22.90;13.10;;;13.00;99.90;;;;;;5072975;28;20034;-55
2022/12/22 12:57:27;;;;;;;24.38;13.70;;;12.50;99.90;;;;;;5072112;28;20055;-55
2022/12/22 12:59:58;;;;;;;24.55;14.45;;;12.40;99.90;;;;;;5071845;28;20082;-55
2022/12/22 13:02:27;;;;;;;22.27;13.90;;;12.20;99.90;;;;;;5073035;28;20484;-54
2022/12/22 13:05:10;;;;;;;22.27;13.63;;;12.10;99.90;;;;;;5073417;28;20070;-55
2022/12/22 13:08:13;;;;;;;23.60;14.50;;;12.20;99.90;;;;;;5072816;28;20044;-52
2022/12/22 13:11:22;;;;;;;22.67;14.07;;;12.00;99.90;;;;;;5072627;28;20181;-54
2022/12/22 13:13:49;;;;;;;22.98;14.38;;;11.80;99.90;;;;;;5029918;28;20093;-53
2022/12/22 13:16:14;;;;;;;22.50;13.85;;;11.60;99.90;;;;;;5073287;28;20412;-55
2022/12/22 13:18:47;;;;;;;24.35;13.93;;;11.50;99.90;;;;;;5072005;28;20033;-56
2022/12/22 13:21:26;;;;;;;25.25;13.88;;;11.40;99.90;;;;;;5072520;28;20211;-56
2022/12/22 13:23:54;;;;;;;22.23;13.73;;;11.30;99.90;;;;;;5071697;28;20073;-57
2022/12/22 13:26:26;;;;;;;23.88;13.63;;;11.10;99.90;;;;;;5072534;28;20278;-56
2022/12/22 13:29:05;;;;;;;24.02;13.23;;;10.90;99.90;;;;;;5072431;28;20473;-54
2022/12/22 13:31:54;;;;;;;17.75;10.23;;;10.80;99.90;;;;;;5072175;28;20040;-56
2022/12/22 13:34:47;;;;;;;19.63;10.73;;;10.70;99.90;;;;;;5072392;28;20040;-54
2022/12/22 13:37:26;;;;;;;18.37;10.07;;;10.50;99.90;;;;;;5072224;28;20032;-56
2022/12/22 13:40:14;;;;;;;16.63;9.07;;;10.40;99.90;;;;;;5071827;28;20035;-55
2022/12/22 13:42:47;;;;;;;16.70;9.27;;;10.30;99.90;;;;;;5072219;28;20034;-56
2022/12/22 13:45:18;;;;;;;16.00;8.97;;;10.20;99.90;;;;;;5072379;28;20120;-55
2022/12/22 13:47:47;;;;;;;19.17;10.23;;;10.20;99.90;;;;;;5072052;28;20024;-56
2022/12/22 13:50:21;;;;;;;17.67;8.83;;;10.10;99.90;;;;;;5071823;28;20048;-55
2022/12/22 13:52:49;;;;;;;18.37;9.70;;;10.00;99.90;;;;;;5072118;28;20029;-56
2022/12/22 13:55:20;;;;;;;15.57;9.30;;;9.90;99.90;;;;;;5071894;28;20408;-56
2022/12/22 13:57:45;;;;;;;17.00;9.27;;;9.90;99.90;;;;;;5071855;28;20576;-53
2022/12/22 14:00:24;;;;;;;19.47;8.77;;;9.90;99.90;;;;;;5071457;28;20115;-56
2022/12/22 14:02:50;;;;;;;16.63;8.48;;;9.80;99.90;;;;;;5072025;28;20029;-57
2022/12/22 14:05:17;;;;;;;16.43;8.90;;;9.80;99.90;;;;;;5070497;28;20485;-52
2022/12/22 14:08:00;;;;;;;17.00;9.50;;;9.80;99.90;;;;;;5071644;28;20037;-54
2022/12/22 14:10:32;;;;;;;18.37;9.43;;;9.90;99.90;;;;;;5071689;28;20039;-54
2022/12/22 14:13:00;;;;;;;18.07;9.53;;;9.90;99.90;;;;;;5071580;28;20047;-56
2022/12/22 14:15:26;;;;;;;18.45;10.00;;;9.90;99.90;;;;;;5071600;28;20028;-54
2022/12/22 14:17:52;;;;;;;19.40;10.47;;;9.80;99.90;;;;;;5071448;28;20054;-53
2022/12/22 14:20:24;;;;;;;21.23;10.53;;;9.80;99.90;;;;;;5071025;28;20111;-56
2022/12/22 14:23:11;;;;;;;17.43;9.30;;;9.80;99.90;;;;;;5071832;28;20033;-56
2022/12/22 14:25:43;;;;;;;16.20;9.87;;;9.70;99.90;;;;;;5071335;28;20016;-56
2022/12/22 14:28:22;;;;;;;18.63;10.17;;;9.70;99.90;;;;;;5071069;28;20028;-55
2022/12/22 14:30:55;;;;;;;19.30;10.40;;;9.80;99.90;;;;;;5070801;28;20151;-52
2022/12/22 14:33:27;;;;;;;19.63;10.50;;;9.70;99.90;;;;;;5071449;28;20430;-55
2022/12/22 14:36:11;;;;;;;27.63;12.03;;;9.70;99.90;;;;;;5071094;28;20036;-56
2022/12/22 14:38:39;;;;;;;22.77;11.43;;;9.70;99.90;;;;;;5070792;28;20370;-55
2022/12/22 14:41:45;;;;;;;20.80;11.03;;;9.60;99.90;;;;;;5065211;22;20502;-51
2022/12/22 14:44:20;;;;;;;24.53;11.43;;;9.60;99.90;;;;;;5031150;28;20029;-52
2022/12/22 14:47:10;;;;;;;24.00;10.77;;;9.70;99.90;;;;;;5030953;28;20429;-55
2022/12/22 14:49:42;;;;;;;20.37;10.77;;;9.60;99.90;;;;;;5030936;28;20037;-53
2022/12/22 14:52:18;;;;;;;21.63;10.83;;;9.60;99.90;;;;;;5031165;28;20038;-51
2022/12/22 14:54:50;;;;;;;19.10;10.00;;;9.60;99.90;;;;;;5031443;28;20060;-54
2022/12/22 14:57:27;;;;;;;20.13;10.37;;;9.60;99.90;;;;;;5030725;28;20112;-58
2022/12/22 15:00:05;;;;;;;18.73;11.00;;;9.60;99.90;;;;;;5030544;28;20025;-53
2022/12/22 15:02:38;;;;;;;33.38;15.32;;;9.60;99.90;;;;;;5030844;28;20033;-53
2022/12/22 15:05:28;;;;;;;18.90;9.90;;;9.60;99.90;;;;;;5031066;28;20209;-49
2022/12/22 15:07:56;;;;;;;18.07;9.63;;;9.60;99.90;;;;;;5030395;28;20033;-54
2022/12/22 15:10:24;;;;;;;16.20;9.40;;;9.60;99.90;;;;;;5029330;28;20387;-55
2022/12/22 15:12:55;;;;;;;17.07;9.07;;;9.60;99.90;;;;;;5029459;28;20551;-57
2022/12/22 15:15:21;;;;;;;13.83;8.43;;;9.50;99.90;;;;;;5029314;28;20041;-50
2022/12/22 15:17:51;;;;;;;15.27;8.50;;;9.50;99.90;;;;;;5030455;28;20033;-53
2022/12/22 15:20:20;;;;;;;16.33;8.83;;;9.50;99.90;;;;;;5030212;28;20037;-54
2022/12/22 15:22:46;;;;;;;16.15;8.75;;;9.50;99.90;;;;;;5030747;28;20228;-53
2022/12/22 15:25:14;;;;;;;16.70;9.10;;;9.50;99.90;;;;;;5030686;28;20113;-51
2022/12/22 15:27:40;;;;;;;16.03;8.70;;;9.50;99.90;;;;;;5030461;28;20417;-53
2022/12/22 15:30:07;;;;;;;17.40;9.13;;;9.50;99.90;;;;;;5030188;28;20575;-54
2022/12/22 15:32:32;;;;;;;19.37;10.43;;;9.40;99.90;;;;;;5028979;28;20049;-52
2022/12/22 15:35:01;;;;;;;21.73;10.80;;;9.40;99.90;;;;;;5030670;28;20033;-50
2022/12/22 15:37:26;;;;;;;18.97;10.30;;;9.40;99.90;;;;;;5030417;28;20469;-54
2022/12/22 15:39:52;;;;;;;17.07;9.67;;;9.40;99.90;;;;;;5030146;28;20492;-51
2022/12/22 15:42:18;;;;;;;22.90;10.47;;;9.40;99.90;;;;;;5030308;28;20505;-54
2022/12/22 15:44:43;;;;;;;18.07;10.90;;;9.30;99.90;;;;;;5030318;28;20456;-52
2022/12/22 15:47:10;;;;;;;18.63;9.83;;;9.30;99.90;;;;;;5030074;28;20030;-49
2022/12/22 15:49:37;;;;;;;18.70;11.00;;;9.30;99.90;;;;;;5030172;28;20140;-55
2022/12/22 15:52:05;;;;;;;19.90;10.43;;;9.20;99.90;;;;;;5030409;28;20395;-54
2022/12/22 15:54:32;;;;;;;18.37;10.80;;;9.20;99.90;;;;;;5032828;28;20029;-57
2022/12/22 15:56:59;;;;;;;20.03;11.33;;;9.10;99.90;;;;;;5034050;28;20041;-51
2022/12/22 15:59:26;;;;;;;17.83;10.97;;;9.10;99.90;;;;;;5034050;28;20034;-51
2022/12/22 16:01:53;;;;;;;22.10;11.67;;;9.00;99.90;;;;;;5034173;28;20481;-53
2022/12/22 16:04:21;;;;;;;24.00;12.30;;;9.10;99.90;;;;;;5034433;28;20082;-52
2022/12/22 16:06:47;;;;;;;24.27;12.47;;;9.00;99.90;;;;;;5033901;28;20042;-54
2022/12/22 16:09:20;;;;;;;25.27;12.73;;;9.00;99.90;;;;;;5033939;28;20025;-51
2022/12/22 16:11:47;;;;;;;21.73;13.13;;;9.00;99.90;;;;;;5033913;28;20076;-51
2022/12/22 16:14:14;;;;;;;21.80;12.73;;;9.00;99.90;;;;;;5034044;28;20053;-52
2022/12/22 16:16:40;;;;;;;23.90;13.63;;;9.00;99.90;;;;;;5033862;28;20036;-55
2022/12/22 16:19:12;;;;;;;25.03;13.07;;;9.00;99.90;;;;;;5033696;28;20029;-53
2022/12/22 16:21:38;;;;;;;26.83;15.27;;;8.90;99.90;;;;;;5033766;28;20056;-54
2022/12/22 16:24:05;;;;;;;30.90;15.13;;;8.90;99.90;;;;;;5033772;28;20478;-54
2022/12/22 16:26:31;;;;;;;31.60;16.30;;;8.90;99.90;;;;;;5033437;28;20429;-51
2022/12/22 16:28:57;;;;;;;31.33;16.80;;;8.80;99.90;;;;;;5033471;28;20034;-55
2022/12/22 16:31:24;;;;;;;30.57;17.10;;;8.70;99.90;;;;;;5033578;28;20040;-52
2022/12/22 16:33:50;;;;;;;31.60;17.67;;;8.70;99.90;;;;;;5033673;28;20061;-53
2022/12/22 16:36:16;;;;;;;36.00;18.07;;;8.60;99.90;;;;;;5033647;28;20033;-53